sensor_id;sensor_type;location;lat;lon;timestamp;P1;durP1;ratioP1;P2;durP2;ratioP2
10116;SDS011;5098;48.792;9.012;2023-03-16T00:02:03;13.00;;;8.00;;
10116;SDS011;5098;48.792;9.012;2023-03-16T00:04:29;13.25;;;8.63;;
10116;SDS011;5098;48.792;9.012;2023-03-16T00:06:56;11.57;;;8.43;;
10116;SDS011;5098;48.792;9.012;2023-03-16T00:09:22;11.82;;;8.75;;
10116;SDS011;5098;48.792;9.012;2023-03-16T00:11:55;13.38;;;8.90;;
10116;SDS011;5098;48.792;9.012;2023-03-16T00:14:21;10.07;;;8.95;;
10116;SDS011;5098;48.792;9.012;2023-03-16T00:16:47;9.95;;;8.93;;
10116;SDS011;5098;48.792;9.012;2023-03-16T00:19:13;12.82;;;9.00;;
10116;SDS011;5098;48.792;9.012;2023-03-16T00:21:39;14.05;;;9.90;;
10116;SDS011;5098;48.792;9.012;2023-03-16T00:24:05;17.35;;;12.10;;
10116;SDS011;5098;48.792;9.012;2023-03-16T00:26:32;12.95;;;10.70;;
10116;SDS011;5098;48.792;9.012;2023-03-16T00:28:58;16.95;;;13.32;;
10116;SDS011;5098;48.792;9.012;2023-03-16T00:31:25;15.82;;;11.68;;
10116;SDS011;5098;48.792;9.012;2023-03-16T00:33:51;14.70;;;11.30;;
10116;SDS011;5098;48.792;9.012;2023-03-16T00:36:17;17.08;;;12.13;;
10116;SDS011;5098;48.792;9.012;2023-03-16T00:38:43;15.60;;;11.95;;
10116;SDS011;5098;48.792;9.012;2023-03-16T00:41:11;17.48;;;12.82;;
10116;SDS011;5098;48.792;9.012;2023-03-16T00:43:41;16.15;;;12.30;;
10116;SDS011;5098;48.792;9.012;2023-03-16T00:46:10;13.95;;;10.75;;
10116;SDS011;5098;48.792;9.012;2023-03-16T00:48:38;14.10;;;10.45;;
10116;SDS011;5098;48.792;9.012;2023-03-16T00:51:07;16.65;;;11.10;;
10116;SDS011;5098;48.792;9.012;2023-03-16T00:53:33;14.10;;;10.48;;
10116;SDS011;5098;48.792;9.012;2023-03-16T00:56:00;12.52;;;8.90;;
10116;SDS011;5098;48.792;9.012;2023-03-16T00:58:28;12.63;;;9.70;;
10116;SDS011;5098;48.792;9.012;2023-03-16T01:00:54;14.93;;;10.85;;
10116;SDS011;5098;48.792;9.012;2023-03-16T01:03:21;15.75;;;10.23;;
10116;SDS011;5098;48.792;9.012;2023-03-16T01:05:47;14.35;;;9.90;;
10116;SDS011;5098;48.792;9.012;2023-03-16T01:08:13;14.93;;;11.25;;
10116;SDS011;5098;48.792;9.012;2023-03-16T01:10:39;13.35;;;10.77;;
10116;SDS011;5098;48.792;9.012;2023-03-16T01:13:05;13.45;;;9.98;;
10116;SDS011;5098;48.792;9.012;2023-03-16T01:15:32;18.35;;;10.40;;
10116;SDS011;5098;48.792;9.012;2023-03-16T01:17:59;12.35;;;9.65;;
10116;SDS011;5098;48.792;9.012;2023-03-16T01:20:25;14.13;;;9.52;;
10116;SDS011;5098;48.792;9.012;2023-03-16T01:22:51;13.85;;;10.75;;
10116;SDS011;5098;48.792;9.012;2023-03-16T01:25:18;17.48;;;9.98;;
10116;SDS011;5098;48.792;9.012;2023-03-16T01:27:45;13.02;;;10.00;;
10116;SDS011;5098;48.792;9.012;2023-03-16T01:30:11;10.98;;;9.45;;
10116;SDS011;5098;48.792;9.012;2023-03-16T01:32:38;14.50;;;10.65;;
10116;SDS011;5098;48.792;9.012;2023-03-16T01:35:05;17.85;;;11.25;;
10116;SDS011;5098;48.792;9.012;2023-03-16T01:37:31;18.05;;;12.98;;
10116;SDS011;5098;48.792;9.012;2023-03-16T01:39:57;17.15;;;12.20;;
10116;SDS011;5098;48.792;9.012;2023-03-16T01:42:23;14.48;;;12.38;;
10116;SDS011;5098;48.792;9.012;2023-03-16T01:44:56;16.10;;;12.75;;
10116;SDS011;5098;48.792;9.012;2023-03-16T01:47:25;14.82;;;12.35;;
10116;SDS011;5098;48.792;9.012;2023-03-16T01:49:52;16.45;;;12.32;;
10116;SDS011;5098;48.792;9.012;2023-03-16T01:52:23;14.07;;;10.80;;
10116;SDS011;5098;48.792;9.012;2023-03-16T01:54:51;17.13;;;11.85;;
10116;SDS011;5098;48.792;9.012;2023-03-16T01:57:20;15.18;;;11.52;;
10116;SDS011;5098;48.792;9.012;2023-03-16T02:02:13;14.43;;;12.13;;
10116;SDS011;5098;48.792;9.012;2023-03-16T02:07:24;13.80;;;11.50;;
10116;SDS011;5098;48.792;9.012;2023-03-16T02:09:53;15.23;;;10.93;;
10116;SDS011;5098;48.792;9.012;2023-03-16T02:12:21;13.75;;;10.73;;
10116;SDS011;5098;48.792;9.012;2023-03-16T02:14:48;16.90;;;11.88;;
10116;SDS011;5098;48.792;9.012;2023-03-16T02:17:15;19.60;;;12.13;;
10116;SDS011;5098;48.792;9.012;2023-03-16T02:22:14;12.25;;;10.48;;
10116;SDS011;5098;48.792;9.012;2023-03-16T02:24:41;13.77;;;11.32;;
10116;SDS011;5098;48.792;9.012;2023-03-16T02:27:19;15.07;;;11.93;;
10116;SDS011;5098;48.792;9.012;2023-03-16T02:32:13;19.05;;;13.30;;
10116;SDS011;5098;48.792;9.012;2023-03-16T02:34:39;14.68;;;11.57;;
10116;SDS011;5098;48.792;9.012;2023-03-16T02:37:06;15.65;;;12.05;;
10116;SDS011;5098;48.792;9.012;2023-03-16T02:39:32;16.83;;;12.30;;
10116;SDS011;5098;48.792;9.012;2023-03-16T02:41:59;15.70;;;12.38;;
10116;SDS011;5098;48.792;9.012;2023-03-16T02:44:26;14.60;;;12.65;;
10116;SDS011;5098;48.792;9.012;2023-03-16T02:46:55;17.42;;;12.73;;
10116;SDS011;5098;48.792;9.012;2023-03-16T02:51:49;15.07;;;12.85;;
10116;SDS011;5098;48.792;9.012;2023-03-16T02:54:15;18.45;;;13.68;;
10116;SDS011;5098;48.792;9.012;2023-03-16T02:56:41;19.13;;;14.98;;
10116;SDS011;5098;48.792;9.012;2023-03-16T02:59:07;24.88;;;16.20;;
10116;SDS011;5098;48.792;9.012;2023-03-16T03:01:33;26.77;;;18.33;;
10116;SDS011;5098;48.792;9.012;2023-03-16T03:04:01;20.17;;;15.95;;
10116;SDS011;5098;48.792;9.012;2023-03-16T03:06:27;21.70;;;15.25;;
10116;SDS011;5098;48.792;9.012;2023-03-16T03:08:54;20.27;;;15.88;;
10116;SDS011;5098;48.792;9.012;2023-03-16T03:11:20;25.05;;;16.15;;
10116;SDS011;5098;48.792;9.012;2023-03-16T03:13:46;22.48;;;16.10;;
10116;SDS011;5098;48.792;9.012;2023-03-16T03:16:12;23.70;;;16.75;;
10116;SDS011;5098;48.792;9.012;2023-03-16T03:18:38;19.05;;;15.15;;
10116;SDS011;5098;48.792;9.012;2023-03-16T03:21:05;20.65;;;15.30;;
10116;SDS011;5098;48.792;9.012;2023-03-16T03:23:31;21.40;;;15.68;;
10116;SDS011;5098;48.792;9.012;2023-03-16T03:25:59;21.42;;;17.38;;
10116;SDS011;5098;48.792;9.012;2023-03-16T03:28:27;24.75;;;17.58;;
10116;SDS011;5098;48.792;9.012;2023-03-16T03:30:53;21.63;;;16.95;;
10116;SDS011;5098;48.792;9.012;2023-03-16T03:33:19;20.23;;;16.20;;
10116;SDS011;5098;48.792;9.012;2023-03-16T03:35:46;17.23;;;14.48;;
10116;SDS011;5098;48.792;9.012;2023-03-16T03:38:12;25.33;;;16.63;;
10116;SDS011;5098;48.792;9.012;2023-03-16T03:40:38;20.67;;;15.45;;
10116;SDS011;5098;48.792;9.012;2023-03-16T03:43:04;17.98;;;14.48;;
10116;SDS011;5098;48.792;9.012;2023-03-16T03:45:30;17.63;;;14.60;;
10116;SDS011;5098;48.792;9.012;2023-03-16T03:47:56;18.55;;;14.88;;
10116;SDS011;5098;48.792;9.012;2023-03-16T03:50:23;19.58;;;14.40;;
10116;SDS011;5098;48.792;9.012;2023-03-16T03:52:49;21.90;;;16.27;;
10116;SDS011;5098;48.792;9.012;2023-03-16T03:55:15;17.80;;;14.48;;
10116;SDS011;5098;48.792;9.012;2023-03-16T03:57:41;21.40;;;16.40;;
10116;SDS011;5098;48.792;9.012;2023-03-16T04:00:08;22.83;;;15.30;;
10116;SDS011;5098;48.792;9.012;2023-03-16T04:02:37;21.55;;;17.63;;
10116;SDS011;5098;48.792;9.012;2023-03-16T04:05:03;22.60;;;17.95;;
10116;SDS011;5098;48.792;9.012;2023-03-16T04:07:30;21.00;;;15.73;;
10116;SDS011;5098;48.792;9.012;2023-03-16T04:09:56;20.80;;;16.70;;
10116;SDS011;5098;48.792;9.012;2023-03-16T04:12:22;20.15;;;16.63;;
10116;SDS011;5098;48.792;9.012;2023-03-16T04:14:48;19.27;;;15.35;;
10116;SDS011;5098;48.792;9.012;2023-03-16T04:17:15;20.73;;;16.55;;
10116;SDS011;5098;48.792;9.012;2023-03-16T04:19:41;19.30;;;16.02;;
10116;SDS011;5098;48.792;9.012;2023-03-16T04:22:08;21.92;;;15.48;;
10116;SDS011;5098;48.792;9.012;2023-03-16T04:24:34;19.23;;;15.30;;
10116;SDS011;5098;48.792;9.012;2023-03-16T04:27:00;23.77;;;15.63;;
10116;SDS011;5098;48.792;9.012;2023-03-16T04:29:26;18.38;;;14.88;;
10116;SDS011;5098;48.792;9.012;2023-03-16T04:31:53;16.60;;;14.45;;
10116;SDS011;5098;48.792;9.012;2023-03-16T04:34:19;20.85;;;15.45;;
10116;SDS011;5098;48.792;9.012;2023-03-16T04:36:52;18.45;;;13.75;;
10116;SDS011;5098;48.792;9.012;2023-03-16T04:39:19;18.08;;;14.25;;
10116;SDS011;5098;48.792;9.012;2023-03-16T04:41:45;17.20;;;13.13;;
10116;SDS011;5098;48.792;9.012;2023-03-16T04:44:11;16.42;;;14.02;;
10116;SDS011;5098;48.792;9.012;2023-03-16T04:46:37;17.35;;;14.18;;
10116;SDS011;5098;48.792;9.012;2023-03-16T04:49:03;17.25;;;12.70;;
10116;SDS011;5098;48.792;9.012;2023-03-16T04:51:33;19.95;;;13.38;;
10116;SDS011;5098;48.792;9.012;2023-03-16T04:53:59;20.58;;;12.68;;
10116;SDS011;5098;48.792;9.012;2023-03-16T04:56:25;15.95;;;13.00;;
10116;SDS011;5098;48.792;9.012;2023-03-16T04:58:51;16.05;;;13.15;;
10116;SDS011;5098;48.792;9.012;2023-03-16T05:01:17;20.02;;;14.23;;
10116;SDS011;5098;48.792;9.012;2023-03-16T05:03:43;16.27;;;12.55;;
10116;SDS011;5098;48.792;9.012;2023-03-16T05:06:10;15.38;;;13.77;;
10116;SDS011;5098;48.792;9.012;2023-03-16T05:08:37;16.08;;;14.40;;
10116;SDS011;5098;48.792;9.012;2023-03-16T05:11:03;17.60;;;13.82;;
10116;SDS011;5098;48.792;9.012;2023-03-16T05:13:29;18.23;;;14.32;;
10116;SDS011;5098;48.792;9.012;2023-03-16T05:15:55;18.67;;;14.10;;
10116;SDS011;5098;48.792;9.012;2023-03-16T05:18:21;19.65;;;13.25;;
10116;SDS011;5098;48.792;9.012;2023-03-16T05:20:48;15.80;;;13.43;;
10116;SDS011;5098;48.792;9.012;2023-03-16T05:23:15;17.90;;;13.80;;
10116;SDS011;5098;48.792;9.012;2023-03-16T05:25:41;15.43;;;12.98;;
10116;SDS011;5098;48.792;9.012;2023-03-16T05:28:07;15.30;;;12.02;;
10116;SDS011;5098;48.792;9.012;2023-03-16T05:30:33;15.52;;;13.50;;
10116;SDS011;5098;48.792;9.012;2023-03-16T05:33:00;19.05;;;13.60;;
10116;SDS011;5098;48.792;9.012;2023-03-16T05:35:26;17.55;;;13.73;;
10116;SDS011;5098;48.792;9.012;2023-03-16T05:37:52;20.33;;;13.93;;
10116;SDS011;5098;48.792;9.012;2023-03-16T05:40:18;18.98;;;14.88;;
10116;SDS011;5098;48.792;9.012;2023-03-16T05:42:48;18.02;;;15.27;;
10116;SDS011;5098;48.792;9.012;2023-03-16T05:45:14;25.55;;;22.13;;
10116;SDS011;5098;48.792;9.012;2023-03-16T05:47:41;29.90;;;23.05;;
10116;SDS011;5098;48.792;9.012;2023-03-16T05:50:08;21.27;;;16.25;;
10116;SDS011;5098;48.792;9.012;2023-03-16T05:52:35;24.17;;;17.02;;
10116;SDS011;5098;48.792;9.012;2023-03-16T05:55:02;20.27;;;16.05;;
10116;SDS011;5098;48.792;9.012;2023-03-16T05:57:29;24.90;;;16.98;;
10116;SDS011;5098;48.792;9.012;2023-03-16T05:59:55;18.02;;;15.75;;
10116;SDS011;5098;48.792;9.012;2023-03-16T06:02:21;20.67;;;14.90;;
10116;SDS011;5098;48.792;9.012;2023-03-16T06:04:47;19.30;;;15.93;;
10116;SDS011;5098;48.792;9.012;2023-03-16T06:07:13;21.42;;;17.00;;
10116;SDS011;5098;48.792;9.012;2023-03-16T06:09:39;16.42;;;14.30;;
10116;SDS011;5098;48.792;9.012;2023-03-16T06:12:05;18.40;;;15.52;;
10116;SDS011;5098;48.792;9.012;2023-03-16T06:14:32;21.77;;;15.77;;
10116;SDS011;5098;48.792;9.012;2023-03-16T06:16:58;18.77;;;15.55;;
10116;SDS011;5098;48.792;9.012;2023-03-16T06:19:24;14.35;;;12.80;;
10116;SDS011;5098;48.792;9.012;2023-03-16T06:21:50;14.57;;;12.55;;
10116;SDS011;5098;48.792;9.012;2023-03-16T06:24:16;18.60;;;15.10;;
10116;SDS011;5098;48.792;9.012;2023-03-16T06:26:42;20.52;;;14.77;;
10116;SDS011;5098;48.792;9.012;2023-03-16T06:29:09;16.67;;;13.52;;
10116;SDS011;5098;48.792;9.012;2023-03-16T06:31:35;17.60;;;14.40;;
10116;SDS011;5098;48.792;9.012;2023-03-16T06:34:01;19.67;;;13.15;;
10116;SDS011;5098;48.792;9.012;2023-03-16T06:36:27;16.42;;;12.90;;
10116;SDS011;5098;48.792;9.012;2023-03-16T06:38:53;16.70;;;13.02;;
10116;SDS011;5098;48.792;9.012;2023-03-16T06:41:19;14.82;;;13.20;;
10116;SDS011;5098;48.792;9.012;2023-03-16T06:43:45;14.70;;;11.68;;
10116;SDS011;5098;48.792;9.012;2023-03-16T06:46:11;22.77;;;14.43;;
10116;SDS011;5098;48.792;9.012;2023-03-16T06:48:37;15.68;;;12.77;;
10116;SDS011;5098;48.792;9.012;2023-03-16T06:51:04;16.80;;;11.23;;
10116;SDS011;5098;48.792;9.012;2023-03-16T06:53:31;13.02;;;10.60;;
10116;SDS011;5098;48.792;9.012;2023-03-16T06:55:57;18.38;;;11.93;;
10116;SDS011;5098;48.792;9.012;2023-03-16T06:58:23;13.35;;;12.00;;
10116;SDS011;5098;48.792;9.012;2023-03-16T07:00:49;18.52;;;13.38;;
10116;SDS011;5098;48.792;9.012;2023-03-16T07:03:17;13.40;;;11.77;;
10116;SDS011;5098;48.792;9.012;2023-03-16T07:05:43;15.75;;;10.65;;
10116;SDS011;5098;48.792;9.012;2023-03-16T07:08:09;13.43;;;10.40;;
10116;SDS011;5098;48.792;9.012;2023-03-16T07:10:36;10.80;;;9.65;;
10116;SDS011;5098;48.792;9.012;2023-03-16T07:13:02;10.70;;;9.38;;
10116;SDS011;5098;48.792;9.012;2023-03-16T07:15:28;10.57;;;9.48;;
10116;SDS011;5098;48.792;9.012;2023-03-16T07:17:54;10.90;;;9.90;;
10116;SDS011;5098;48.792;9.012;2023-03-16T07:20:20;11.00;;;8.77;;
10116;SDS011;5098;48.792;9.012;2023-03-16T07:22:46;12.30;;;9.57;;
10116;SDS011;5098;48.792;9.012;2023-03-16T07:25:12;9.93;;;8.90;;
10116;SDS011;5098;48.792;9.012;2023-03-16T07:27:39;12.07;;;9.87;;
10116;SDS011;5098;48.792;9.012;2023-03-16T07:30:07;9.47;;;8.47;;
10116;SDS011;5098;48.792;9.012;2023-03-16T07:32:36;9.90;;;8.43;;
10116;SDS011;5098;48.792;9.012;2023-03-16T07:35:02;11.63;;;10.53;;
10116;SDS011;5098;48.792;9.012;2023-03-16T07:37:28;10.03;;;9.00;;
10116;SDS011;5098;48.792;9.012;2023-03-16T07:39:54;10.63;;;9.63;;
10116;SDS011;5098;48.792;9.012;2023-03-16T07:42:20;9.43;;;8.53;;
10116;SDS011;5098;48.792;9.012;2023-03-16T07:44:46;10.53;;;9.43;;
10116;SDS011;5098;48.792;9.012;2023-03-16T07:47:13;10.30;;;8.93;;
10116;SDS011;5098;48.792;9.012;2023-03-16T07:49:39;9.75;;;8.45;;
10116;SDS011;5098;48.792;9.012;2023-03-16T07:52:05;8.93;;;8.13;;
10116;SDS011;5098;48.792;9.012;2023-03-16T07:54:31;10.30;;;8.63;;
10116;SDS011;5098;48.792;9.012;2023-03-16T07:56:57;8.73;;;7.73;;
10116;SDS011;5098;48.792;9.012;2023-03-16T07:59:23;8.83;;;7.90;;
10116;SDS011;5098;48.792;9.012;2023-03-16T08:01:49;9.30;;;8.43;;
10116;SDS011;5098;48.792;9.012;2023-03-16T08:04:15;8.13;;;7.33;;
10116;SDS011;5098;48.792;9.012;2023-03-16T08:06:42;9.23;;;8.33;;
10116;SDS011;5098;48.792;9.012;2023-03-16T08:09:08;8.77;;;7.87;;
10116;SDS011;5098;48.792;9.012;2023-03-16T08:11:34;8.20;;;7.40;;
10116;SDS011;5098;48.792;9.012;2023-03-16T08:14:00;7.20;;;6.50;;
10116;SDS011;5098;48.792;9.012;2023-03-16T08:16:26;8.37;;;6.70;;
10116;SDS011;5098;48.792;9.012;2023-03-16T08:18:54;12.20;;;6.97;;
10116;SDS011;5098;48.792;9.012;2023-03-16T08:21:21;8.50;;;6.97;;
10116;SDS011;5098;48.792;9.012;2023-03-16T08:23:47;10.93;;;6.90;;
10116;SDS011;5098;48.792;9.012;2023-03-16T08:26:21;7.23;;;6.13;;
10116;SDS011;5098;48.792;9.012;2023-03-16T08:28:49;9.53;;;6.90;;
10116;SDS011;5098;48.792;9.012;2023-03-16T08:31:16;22.90;;;9.10;;
10116;SDS011;5098;48.792;9.012;2023-03-16T08:33:43;13.10;;;7.00;;
10116;SDS011;5098;48.792;9.012;2023-03-16T08:36:09;11.83;;;6.60;;
10116;SDS011;5098;48.792;9.012;2023-03-16T08:38:36;9.43;;;6.50;;
10116;SDS011;5098;48.792;9.012;2023-03-16T08:41:04;29.37;;;8.90;;
10116;SDS011;5098;48.792;9.012;2023-03-16T08:43:30;8.37;;;6.03;;
10116;SDS011;5098;48.792;9.012;2023-03-16T08:45:56;10.73;;;6.93;;
10116;SDS011;5098;48.792;9.012;2023-03-16T08:48:23;9.93;;;6.10;;
10116;SDS011;5098;48.792;9.012;2023-03-16T08:50:49;12.80;;;5.70;;
10116;SDS011;5098;48.792;9.012;2023-03-16T08:53:16;15.70;;;6.20;;
10116;SDS011;5098;48.792;9.012;2023-03-16T08:55:43;7.33;;;5.80;;
10116;SDS011;5098;48.792;9.012;2023-03-16T08:58:10;9.10;;;4.80;;
10116;SDS011;5098;48.792;9.012;2023-03-16T09:00:36;12.00;;;4.70;;
10116;SDS011;5098;48.792;9.012;2023-03-16T09:03:03;8.00;;;4.20;;
10116;SDS011;5098;48.792;9.012;2023-03-16T09:05:29;4.50;;;3.30;;
10116;SDS011;5098;48.792;9.012;2023-03-16T09:07:55;8.33;;;4.00;;
10116;SDS011;5098;48.792;9.012;2023-03-16T09:10:21;5.47;;;3.53;;
10116;SDS011;5098;48.792;9.012;2023-03-16T09:12:48;5.87;;;4.50;;
10116;SDS011;5098;48.792;9.012;2023-03-16T09:15:16;4.57;;;4.10;;
10116;SDS011;5098;48.792;9.012;2023-03-16T09:17:43;6.40;;;3.83;;
10116;SDS011;5098;48.792;9.012;2023-03-16T09:20:10;4.40;;;4.00;;
10116;SDS011;5098;48.792;9.012;2023-03-16T09:22:36;4.90;;;3.30;;
10116;SDS011;5098;48.792;9.012;2023-03-16T09:25:05;3.93;;;3.20;;
10116;SDS011;5098;48.792;9.012;2023-03-16T09:27:33;5.03;;;3.43;;
10116;SDS011;5098;48.792;9.012;2023-03-16T09:30:01;3.87;;;2.90;;
10116;SDS011;5098;48.792;9.012;2023-03-16T09:32:28;4.77;;;3.30;;
10116;SDS011;5098;48.792;9.012;2023-03-16T09:34:55;4.03;;;3.20;;
10116;SDS011;5098;48.792;9.012;2023-03-16T09:37:21;3.63;;;3.13;;
10116;SDS011;5098;48.792;9.012;2023-03-16T09:39:47;4.57;;;3.23;;
10116;SDS011;5098;48.792;9.012;2023-03-16T09:47:22;3.10;;;2.80;;
10116;SDS011;5098;48.792;9.012;2023-03-16T09:49:50;4.30;;;3.83;;
10116;SDS011;5098;48.792;9.012;2023-03-16T09:55:16;4.93;;;3.53;;
10116;SDS011;5098;48.792;9.012;2023-03-16T09:57:46;6.90;;;3.60;;
10116;SDS011;5098;48.792;9.012;2023-03-16T10:00:21;3.90;;;3.50;;
10116;SDS011;5098;48.792;9.012;2023-03-16T10:05:34;6.57;;;3.77;;
10116;SDS011;5098;48.792;9.012;2023-03-16T10:10:48;4.30;;;3.43;;
10116;SDS011;5098;48.792;9.012;2023-03-16T10:16:05;3.87;;;2.63;;
10116;SDS011;5098;48.792;9.012;2023-03-16T10:18:44;3.47;;;3.17;;
10116;SDS011;5098;48.792;9.012;2023-03-16T10:21:12;3.30;;;2.83;;
10116;SDS011;5098;48.792;9.012;2023-03-16T10:23:38;5.37;;;2.63;;
10116;SDS011;5098;48.792;9.012;2023-03-16T10:26:11;4.47;;;2.90;;
10116;SDS011;5098;48.792;9.012;2023-03-16T10:28:38;3.63;;;2.77;;
10116;SDS011;5098;48.792;9.012;2023-03-16T10:31:04;5.07;;;3.23;;
10116;SDS011;5098;48.792;9.012;2023-03-16T10:33:31;3.97;;;3.40;;
10116;SDS011;5098;48.792;9.012;2023-03-16T10:36:14;3.33;;;3.07;;
10116;SDS011;5098;48.792;9.012;2023-03-16T10:43:44;3.50;;;3.20;;
10116;SDS011;5098;48.792;9.012;2023-03-16T10:46:12;3.37;;;2.70;;
10116;SDS011;5098;48.792;9.012;2023-03-16T10:48:38;4.37;;;2.87;;
10116;SDS011;5098;48.792;9.012;2023-03-16T10:51:11;3.87;;;3.07;;
10116;SDS011;5098;48.792;9.012;2023-03-16T10:53:39;3.60;;;2.60;;
10116;SDS011;5098;48.792;9.012;2023-03-16T10:56:21;9.37;;;4.03;;
10116;SDS011;5098;48.792;9.012;2023-03-16T10:58:47;3.40;;;2.90;;
10116;SDS011;5098;48.792;9.012;2023-03-16T11:01:21;3.53;;;2.77;;
10116;SDS011;5098;48.792;9.012;2023-03-16T11:03:49;3.73;;;3.33;;
10116;SDS011;5098;48.792;9.012;2023-03-16T11:06:21;3.93;;;3.53;;
10116;SDS011;5098;48.792;9.012;2023-03-16T11:08:48;3.90;;;3.60;;
10116;SDS011;5098;48.792;9.012;2023-03-16T11:11:16;3.50;;;2.93;;
10116;SDS011;5098;48.792;9.012;2023-03-16T11:13:46;4.63;;;3.00;;
10116;SDS011;5098;48.792;9.012;2023-03-16T11:16:16;5.27;;;3.60;;
10116;SDS011;5098;48.792;9.012;2023-03-16T11:18:46;7.03;;;4.27;;
10116;SDS011;5098;48.792;9.012;2023-03-16T11:21:14;4.57;;;3.47;;
10116;SDS011;5098;48.792;9.012;2023-03-16T11:23:47;5.47;;;4.50;;
10116;SDS011;5098;48.792;9.012;2023-03-16T11:26:47;16.70;;;4.50;;
10116;SDS011;5098;48.792;9.012;2023-03-16T11:31:38;4.00;;;3.30;;
10116;SDS011;5098;48.792;9.012;2023-03-16T11:34:17;4.07;;;3.00;;
10116;SDS011;5098;48.792;9.012;2023-03-16T11:36:54;5.40;;;3.17;;
10116;SDS011;5098;48.792;9.012;2023-03-16T11:42:26;4.13;;;3.50;;
10116;SDS011;5098;48.792;9.012;2023-03-16T11:55:28;5.07;;;3.13;;
10116;SDS011;5098;48.792;9.012;2023-03-16T12:00:35;4.13;;;2.90;;
10116;SDS011;5098;48.792;9.012;2023-03-16T12:03:25;3.07;;;2.67;;
10116;SDS011;5098;48.792;9.012;2023-03-16T12:06:06;4.43;;;3.27;;
10116;SDS011;5098;48.792;9.012;2023-03-16T12:09:01;4.10;;;2.60;;
10116;SDS011;5098;48.792;9.012;2023-03-16T12:11:33;3.00;;;2.40;;
10116;SDS011;5098;48.792;9.012;2023-03-16T12:14:12;3.70;;;3.37;;
10116;SDS011;5098;48.792;9.012;2023-03-16T12:19:31;3.43;;;2.97;;
10116;SDS011;5098;48.792;9.012;2023-03-16T12:22:01;2.83;;;2.53;;
10116;SDS011;5098;48.792;9.012;2023-03-16T12:24:30;4.00;;;3.10;;
10116;SDS011;5098;48.792;9.012;2023-03-16T12:26:56;6.27;;;2.93;;
10116;SDS011;5098;48.792;9.012;2023-03-16T12:35:03;3.83;;;3.10;;
10116;SDS011;5098;48.792;9.012;2023-03-16T12:43:05;4.73;;;3.30;;
10116;SDS011;5098;48.792;9.012;2023-03-16T12:48:22;3.33;;;2.60;;
10116;SDS011;5098;48.792;9.012;2023-03-16T12:50:52;3.40;;;3.10;;
10116;SDS011;5098;48.792;9.012;2023-03-16T12:55:52;4.20;;;3.07;;
10116;SDS011;5098;48.792;9.012;2023-03-16T12:58:20;3.63;;;2.67;;
10116;SDS011;5098;48.792;9.012;2023-03-16T13:00:53;3.23;;;2.80;;
10116;SDS011;5098;48.792;9.012;2023-03-16T13:03:20;4.10;;;3.03;;
10116;SDS011;5098;48.792;9.012;2023-03-16T13:05:50;2.97;;;2.33;;
10116;SDS011;5098;48.792;9.012;2023-03-16T13:08:18;3.93;;;2.90;;
10116;SDS011;5098;48.792;9.012;2023-03-16T13:11:04;3.93;;;3.23;;
10116;SDS011;5098;48.792;9.012;2023-03-16T13:13:31;2.73;;;2.40;;
10116;SDS011;5098;48.792;9.012;2023-03-16T13:16:07;5.17;;;2.83;;
10116;SDS011;5098;48.792;9.012;2023-03-16T13:18:39;3.97;;;3.17;;
10116;SDS011;5098;48.792;9.012;2023-03-16T13:21:13;3.50;;;3.07;;
10116;SDS011;5098;48.792;9.012;2023-03-16T13:23:53;3.00;;;2.23;;
10116;SDS011;5098;48.792;9.012;2023-03-16T13:26:38;2.63;;;2.20;;
10116;SDS011;5098;48.792;9.012;2023-03-16T13:31:44;3.90;;;2.70;;
10116;SDS011;5098;48.792;9.012;2023-03-16T13:34:12;3.03;;;2.40;;
10116;SDS011;5098;48.792;9.012;2023-03-16T13:36:39;4.17;;;2.77;;
10116;SDS011;5098;48.792;9.012;2023-03-16T13:39:14;3.10;;;2.27;;
10116;SDS011;5098;48.792;9.012;2023-03-16T13:41:48;2.73;;;2.23;;
10116;SDS011;5098;48.792;9.012;2023-03-16T13:44:19;6.13;;;2.80;;
10116;SDS011;5098;48.792;9.012;2023-03-16T13:46:47;3.33;;;3.03;;
10116;SDS011;5098;48.792;9.012;2023-03-16T13:49:17;1.90;;;1.70;;
10116;SDS011;5098;48.792;9.012;2023-03-16T13:51:43;2.10;;;1.90;;
10116;SDS011;5098;48.792;9.012;2023-03-16T13:54:18;2.53;;;1.90;;
10116;SDS011;5098;48.792;9.012;2023-03-16T13:56:47;3.40;;;2.37;;
10116;SDS011;5098;48.792;9.012;2023-03-16T13:59:14;4.83;;;2.60;;
10116;SDS011;5098;48.792;9.012;2023-03-16T14:01:42;2.60;;;1.80;;
10116;SDS011;5098;48.792;9.012;2023-03-16T14:04:09;3.87;;;2.50;;
10116;SDS011;5098;48.792;9.012;2023-03-16T14:06:38;2.80;;;2.27;;
10116;SDS011;5098;48.792;9.012;2023-03-16T14:09:06;2.40;;;1.93;;
10116;SDS011;5098;48.792;9.012;2023-03-16T14:11:33;3.10;;;2.10;;
10116;SDS011;5098;48.792;9.012;2023-03-16T14:13:59;3.00;;;2.10;;
10116;SDS011;5098;48.792;9.012;2023-03-16T14:16:26;3.57;;;1.93;;
10116;SDS011;5098;48.792;9.012;2023-03-16T14:18:56;3.33;;;2.17;;
10116;SDS011;5098;48.792;9.012;2023-03-16T14:21:24;2.83;;;1.67;;
10116;SDS011;5098;48.792;9.012;2023-03-16T14:23:51;3.73;;;2.30;;
10116;SDS011;5098;48.792;9.012;2023-03-16T14:26:19;3.33;;;1.90;;
10116;SDS011;5098;48.792;9.012;2023-03-16T14:29:22;3.80;;;2.23;;
10116;SDS011;5098;48.792;9.012;2023-03-16T14:31:38;3.80;;;1.90;;
10116;SDS011;5098;48.792;9.012;2023-03-16T14:36:49;5.20;;;2.47;;
10116;SDS011;5098;48.792;9.012;2023-03-16T14:39:18;2.77;;;2.20;;
10116;SDS011;5098;48.792;9.012;2023-03-16T14:41:48;3.13;;;2.37;;
10116;SDS011;5098;48.792;9.012;2023-03-16T14:44:16;3.57;;;2.43;;
10116;SDS011;5098;48.792;9.012;2023-03-16T14:46:43;3.63;;;2.47;;
10116;SDS011;5098;48.792;9.012;2023-03-16T14:49:28;3.17;;;1.70;;
10116;SDS011;5098;48.792;9.012;2023-03-16T14:52:01;3.10;;;1.80;;
10116;SDS011;5098;48.792;9.012;2023-03-16T14:54:29;6.10;;;1.80;;
10116;SDS011;5098;48.792;9.012;2023-03-16T14:56:59;3.00;;;2.33;;
10116;SDS011;5098;48.792;9.012;2023-03-16T14:59:26;2.33;;;2.10;;
10116;SDS011;5098;48.792;9.012;2023-03-16T15:01:52;3.87;;;2.17;;
10116;SDS011;5098;48.792;9.012;2023-03-16T15:04:26;2.67;;;2.00;;
10116;SDS011;5098;48.792;9.012;2023-03-16T15:06:53;2.23;;;1.77;;
10116;SDS011;5098;48.792;9.012;2023-03-16T15:11:54;5.30;;;2.20;;
10116;SDS011;5098;48.792;9.012;2023-03-16T15:14:22;2.33;;;1.60;;
10116;SDS011;5098;48.792;9.012;2023-03-16T15:17:07;2.40;;;1.83;;
10116;SDS011;5098;48.792;9.012;2023-03-16T15:19:33;2.50;;;2.27;;
10116;SDS011;5098;48.792;9.012;2023-03-16T15:22:00;2.43;;;2.20;;
10116;SDS011;5098;48.792;9.012;2023-03-16T15:24:27;2.80;;;1.73;;
10116;SDS011;5098;48.792;9.012;2023-03-16T15:26:55;2.43;;;1.57;;
10116;SDS011;5098;48.792;9.012;2023-03-16T15:29:21;3.20;;;1.70;;
10116;SDS011;5098;48.792;9.012;2023-03-16T15:31:47;2.00;;;1.80;;
10116;SDS011;5098;48.792;9.012;2023-03-16T15:34:13;2.47;;;1.83;;
10116;SDS011;5098;48.792;9.012;2023-03-16T15:36:40;2.53;;;1.90;;
10116;SDS011;5098;48.792;9.012;2023-03-16T15:39:08;1.87;;;1.77;;
10116;SDS011;5098;48.792;9.012;2023-03-16T15:41:36;2.50;;;1.90;;
10116;SDS011;5098;48.792;9.012;2023-03-16T15:44:04;2.53;;;1.77;;
10116;SDS011;5098;48.792;9.012;2023-03-16T15:46:33;2.10;;;1.50;;
10116;SDS011;5098;48.792;9.012;2023-03-16T15:49:00;1.60;;;1.37;;
10116;SDS011;5098;48.792;9.012;2023-03-16T15:51:26;3.10;;;1.57;;
10116;SDS011;5098;48.792;9.012;2023-03-16T15:53:58;2.87;;;1.77;;
10116;SDS011;5098;48.792;9.012;2023-03-16T15:56:26;2.00;;;1.60;;
10116;SDS011;5098;48.792;9.012;2023-03-16T15:58:56;3.80;;;2.03;;
10116;SDS011;5098;48.792;9.012;2023-03-16T16:01:25;3.20;;;2.03;;
10116;SDS011;5098;48.792;9.012;2023-03-16T16:03:51;2.00;;;1.77;;
10116;SDS011;5098;48.792;9.012;2023-03-16T16:06:18;2.40;;;1.83;;
10116;SDS011;5098;48.792;9.012;2023-03-16T16:08:44;3.17;;;2.00;;
10116;SDS011;5098;48.792;9.012;2023-03-16T16:11:22;1.93;;;1.70;;
10116;SDS011;5098;48.792;9.012;2023-03-16T16:13:48;5.33;;;2.10;;